sensor_id;sensor_type;location;lat;lon;timestamp;P1;durP1;ratioP1;P2;durP2;ratioP2
13032;SDS011;6583;42.632;23.298;2022-12-07T00:01:06;55.93;;;35.37;;
13032;SDS011;6583;42.632;23.298;2022-12-07T00:03:33;51.37;;;33.20;;
13032;SDS011;6583;42.632;23.298;2022-12-07T00:06:00;56.00;;;34.10;;
13032;SDS011;6583;42.632;23.298;2022-12-07T00:08:28;55.07;;;33.17;;
13032;SDS011;6583;42.632;23.298;2022-12-07T00:10:54;53.87;;;33.40;;
13032;SDS011;6583;42.632;23.298;2022-12-07T00:13:21;52.00;;;32.70;;
13032;SDS011;6583;42.632;23.298;2022-12-07T00:15:49;52.90;;;33.43;;
13032;SDS011;6583;42.632;23.298;2022-12-07T00:18:16;52.53;;;33.07;;
13032;SDS011;6583;42.632;23.298;2022-12-07T00:20:43;45.70;;;31.17;;
13032;SDS011;6583;42.632;23.298;2022-12-07T00:23:09;52.63;;;33.10;;
13032;SDS011;6583;42.632;23.298;2022-12-07T00:25:36;50.43;;;31.47;;
13032;SDS011;6583;42.632;23.298;2022-12-07T00:28:03;52.33;;;34.17;;
13032;SDS011;6583;42.632;23.298;2022-12-07T00:30:30;49.73;;;31.93;;
13032;SDS011;6583;42.632;23.298;2022-12-07T00:32:58;47.83;;;30.83;;
13032;SDS011;6583;42.632;23.298;2022-12-07T00:35:24;48.13;;;30.83;;
13032;SDS011;6583;42.632;23.298;2022-12-07T00:37:51;52.07;;;32.37;;
13032;SDS011;6583;42.632;23.298;2022-12-07T00:40:18;50.00;;;33.17;;
13032;SDS011;6583;42.632;23.298;2022-12-07T00:42:44;45.73;;;31.80;;
13032;SDS011;6583;42.632;23.298;2022-12-07T00:45:11;52.80;;;34.87;;
13032;SDS011;6583;42.632;23.298;2022-12-07T00:47:38;48.43;;;31.97;;
13032;SDS011;6583;42.632;23.298;2022-12-07T00:50:06;55.63;;;37.50;;
13032;SDS011;6583;42.632;23.298;2022-12-07T00:52:33;42.80;;;29.93;;
13032;SDS011;6583;42.632;23.298;2022-12-07T00:55:00;49.20;;;31.60;;
13032;SDS011;6583;42.632;23.298;2022-12-07T00:57:26;49.53;;;33.27;;
13032;SDS011;6583;42.632;23.298;2022-12-07T00:59:53;50.10;;;31.70;;
13032;SDS011;6583;42.632;23.298;2022-12-07T01:02:22;52.63;;;32.47;;
13032;SDS011;6583;42.632;23.298;2022-12-07T01:04:49;47.57;;;30.83;;
13032;SDS011;6583;42.632;23.298;2022-12-07T01:07:17;60.53;;;39.07;;
13032;SDS011;6583;42.632;23.298;2022-12-07T01:09:44;45.83;;;31.87;;
13032;SDS011;6583;42.632;23.298;2022-12-07T01:12:10;48.87;;;32.30;;
13032;SDS011;6583;42.632;23.298;2022-12-07T01:14:37;51.40;;;32.70;;
13032;SDS011;6583;42.632;23.298;2022-12-07T01:17:04;48.60;;;31.03;;
13032;SDS011;6583;42.632;23.298;2022-12-07T01:19:30;45.60;;;29.80;;
13032;SDS011;6583;42.632;23.298;2022-12-07T01:21:57;43.33;;;29.27;;
13032;SDS011;6583;42.632;23.298;2022-12-07T01:24:25;46.40;;;30.37;;
13032;SDS011;6583;42.632;23.298;2022-12-07T01:26:52;51.93;;;33.07;;
13032;SDS011;6583;42.632;23.298;2022-12-07T01:29:18;49.70;;;32.57;;
13032;SDS011;6583;42.632;23.298;2022-12-07T01:31:47;45.33;;;30.80;;
13032;SDS011;6583;42.632;23.298;2022-12-07T01:34:15;47.50;;;31.03;;
13032;SDS011;6583;42.632;23.298;2022-12-07T01:36:42;42.63;;;28.23;;
13032;SDS011;6583;42.632;23.298;2022-12-07T01:39:09;46.30;;;28.23;;
13032;SDS011;6583;42.632;23.298;2022-12-07T01:41:37;43.07;;;27.73;;
13032;SDS011;6583;42.632;23.298;2022-12-07T01:44:18;41.93;;;26.63;;
13032;SDS011;6583;42.632;23.298;2022-12-07T01:46:47;44.70;;;27.27;;
13032;SDS011;6583;42.632;23.298;2022-12-07T01:49:29;43.03;;;26.27;;
13032;SDS011;6583;42.632;23.298;2022-12-07T01:52:06;41.83;;;26.30;;
13032;SDS011;6583;42.632;23.298;2022-12-07T01:54:42;43.40;;;28.47;;
13032;SDS011;6583;42.632;23.298;2022-12-07T01:57:13;41.33;;;26.23;;
13032;SDS011;6583;42.632;23.298;2022-12-07T01:59:42;40.93;;;26.57;;
13032;SDS011;6583;42.632;23.298;2022-12-07T02:02:11;37.83;;;24.80;;
13032;SDS011;6583;42.632;23.298;2022-12-07T02:04:44;37.60;;;24.67;;
13032;SDS011;6583;42.632;23.298;2022-12-07T02:07:12;39.80;;;24.83;;
13032;SDS011;6583;42.632;23.298;2022-12-07T02:09:39;40.50;;;25.50;;
13032;SDS011;6583;42.632;23.298;2022-12-07T02:12:06;40.23;;;25.33;;
13032;SDS011;6583;42.632;23.298;2022-12-07T02:14:34;39.50;;;24.73;;
13032;SDS011;6583;42.632;23.298;2022-12-07T02:17:03;40.10;;;22.63;;
13032;SDS011;6583;42.632;23.298;2022-12-07T02:22:39;35.03;;;22.67;;
13032;SDS011;6583;42.632;23.298;2022-12-07T02:25:21;39.83;;;23.33;;
13032;SDS011;6583;42.632;23.298;2022-12-07T02:27:58;37.80;;;22.67;;
13032;SDS011;6583;42.632;23.298;2022-12-07T02:30:33;37.10;;;23.80;;
13032;SDS011;6583;42.632;23.298;2022-12-07T02:33:05;41.93;;;23.93;;
13032;SDS011;6583;42.632;23.298;2022-12-07T02:35:35;42.50;;;24.93;;
13032;SDS011;6583;42.632;23.298;2022-12-07T02:38:08;41.70;;;25.53;;
13032;SDS011;6583;42.632;23.298;2022-12-07T02:40:41;38.57;;;24.37;;
13032;SDS011;6583;42.632;23.298;2022-12-07T02:43:14;44.53;;;25.00;;
13032;SDS011;6583;42.632;23.298;2022-12-07T02:45:46;38.70;;;23.87;;
13032;SDS011;6583;42.632;23.298;2022-12-07T02:48:14;43.63;;;24.70;;
13032;SDS011;6583;42.632;23.298;2022-12-07T02:50:44;42.57;;;24.97;;
13032;SDS011;6583;42.632;23.298;2022-12-07T02:56:00;37.73;;;23.57;;
13032;SDS011;6583;42.632;23.298;2022-12-07T02:58:32;37.60;;;23.53;;
13032;SDS011;6583;42.632;23.298;2022-12-07T03:01:15;42.30;;;25.20;;
13032;SDS011;6583;42.632;23.298;2022-12-07T03:03:54;42.37;;;25.23;;
13032;SDS011;6583;42.632;23.298;2022-12-07T03:06:30;42.40;;;24.17;;
13032;SDS011;6583;42.632;23.298;2022-12-07T03:09:04;37.73;;;23.50;;
13032;SDS011;6583;42.632;23.298;2022-12-07T03:11:42;38.57;;;24.63;;
13032;SDS011;6583;42.632;23.298;2022-12-07T03:14:13;40.80;;;24.87;;
13032;SDS011;6583;42.632;23.298;2022-12-07T03:16:47;37.90;;;23.67;;
13032;SDS011;6583;42.632;23.298;2022-12-07T03:19:21;36.17;;;22.03;;
13032;SDS011;6583;42.632;23.298;2022-12-07T03:21:53;30.97;;;20.97;;
13032;SDS011;6583;42.632;23.298;2022-12-07T03:24:24;37.37;;;22.67;;
13032;SDS011;6583;42.632;23.298;2022-12-07T03:26:55;32.83;;;21.27;;
13032;SDS011;6583;42.632;23.298;2022-12-07T03:29:30;34.60;;;21.83;;
13032;SDS011;6583;42.632;23.298;2022-12-07T03:32:05;33.90;;;21.80;;
13032;SDS011;6583;42.632;23.298;2022-12-07T03:34:38;33.30;;;20.43;;
13032;SDS011;6583;42.632;23.298;2022-12-07T03:37:12;33.07;;;20.83;;
13032;SDS011;6583;42.632;23.298;2022-12-07T03:39:45;27.53;;;18.53;;
13032;SDS011;6583;42.632;23.298;2022-12-07T03:42:20;26.17;;;17.43;;
13032;SDS011;6583;42.632;23.298;2022-12-07T03:44:47;27.93;;;18.00;;
13032;SDS011;6583;42.632;23.298;2022-12-07T03:47:18;24.47;;;17.13;;
13032;SDS011;6583;42.632;23.298;2022-12-07T03:49:53;23.93;;;16.17;;
13032;SDS011;6583;42.632;23.298;2022-12-07T03:52:25;23.40;;;14.57;;
13032;SDS011;6583;42.632;23.298;2022-12-07T03:55:00;24.20;;;14.30;;
13032;SDS011;6583;42.632;23.298;2022-12-07T03:57:32;20.57;;;13.70;;
13032;SDS011;6583;42.632;23.298;2022-12-07T04:00:03;20.77;;;13.83;;
13032;SDS011;6583;42.632;23.298;2022-12-07T04:02:32;19.80;;;14.13;;
13032;SDS011;6583;42.632;23.298;2022-12-07T04:05:00;22.27;;;13.40;;
13032;SDS011;6583;42.632;23.298;2022-12-07T04:07:27;22.97;;;13.93;;
13032;SDS011;6583;42.632;23.298;2022-12-07T04:09:54;20.60;;;13.53;;
13032;SDS011;6583;42.632;23.298;2022-12-07T04:12:21;22.40;;;13.90;;
13032;SDS011;6583;42.632;23.298;2022-12-07T04:14:47;20.77;;;14.70;;
13032;SDS011;6583;42.632;23.298;2022-12-07T04:17:14;22.47;;;14.23;;
13032;SDS011;6583;42.632;23.298;2022-12-07T04:19:42;23.50;;;14.90;;
13032;SDS011;6583;42.632;23.298;2022-12-07T04:22:09;27.97;;;15.87;;
13032;SDS011;6583;42.632;23.298;2022-12-07T04:24:36;25.93;;;16.23;;
13032;SDS011;6583;42.632;23.298;2022-12-07T04:27:03;30.27;;;17.03;;
13032;SDS011;6583;42.632;23.298;2022-12-07T04:29:29;24.07;;;16.33;;
13032;SDS011;6583;42.632;23.298;2022-12-07T04:31:56;26.17;;;15.63;;
13032;SDS011;6583;42.632;23.298;2022-12-07T04:34:23;22.73;;;14.93;;
13032;SDS011;6583;42.632;23.298;2022-12-07T04:36:51;27.00;;;16.23;;
13032;SDS011;6583;42.632;23.298;2022-12-07T04:39:19;22.57;;;14.70;;
13032;SDS011;6583;42.632;23.298;2022-12-07T04:41:47;21.73;;;14.90;;
13032;SDS011;6583;42.632;23.298;2022-12-07T04:44:14;23.40;;;15.50;;
13032;SDS011;6583;42.632;23.298;2022-12-07T04:46:41;23.97;;;15.57;;
13032;SDS011;6583;42.632;23.298;2022-12-07T04:49:09;21.23;;;15.00;;
13032;SDS011;6583;42.632;23.298;2022-12-07T04:51:36;20.87;;;14.03;;
13032;SDS011;6583;42.632;23.298;2022-12-07T04:54:04;20.70;;;14.47;;
13032;SDS011;6583;42.632;23.298;2022-12-07T04:56:31;21.57;;;14.10;;
13032;SDS011;6583;42.632;23.298;2022-12-07T04:58:59;22.30;;;13.87;;
13032;SDS011;6583;42.632;23.298;2022-12-07T05:01:26;22.20;;;13.77;;
13032;SDS011;6583;42.632;23.298;2022-12-07T05:03:52;21.63;;;13.40;;
13032;SDS011;6583;42.632;23.298;2022-12-07T05:06:19;21.07;;;13.40;;
13032;SDS011;6583;42.632;23.298;2022-12-07T05:08:46;20.07;;;12.70;;
13032;SDS011;6583;42.632;23.298;2022-12-07T05:11:14;18.17;;;12.87;;
13032;SDS011;6583;42.632;23.298;2022-12-07T05:13:55;20.37;;;12.87;;
13032;SDS011;6583;42.632;23.298;2022-12-07T05:16:22;17.77;;;12.30;;
13032;SDS011;6583;42.632;23.298;2022-12-07T05:18:48;18.60;;;11.73;;
13032;SDS011;6583;42.632;23.298;2022-12-07T05:21:15;19.97;;;12.57;;
13032;SDS011;6583;42.632;23.298;2022-12-07T05:23:42;19.97;;;12.93;;
13032;SDS011;6583;42.632;23.298;2022-12-07T05:26:08;20.13;;;12.87;;
13032;SDS011;6583;42.632;23.298;2022-12-07T05:28:37;20.27;;;13.00;;
13032;SDS011;6583;42.632;23.298;2022-12-07T05:31:04;23.00;;;13.83;;
13032;SDS011;6583;42.632;23.298;2022-12-07T05:33:31;24.47;;;15.73;;
13032;SDS011;6583;42.632;23.298;2022-12-07T05:35:58;30.20;;;16.30;;
13032;SDS011;6583;42.632;23.298;2022-12-07T05:38:30;24.90;;;15.40;;
13032;SDS011;6583;42.632;23.298;2022-12-07T05:40:59;27.13;;;16.40;;
13032;SDS011;6583;42.632;23.298;2022-12-07T05:43:27;27.03;;;17.67;;
13032;SDS011;6583;42.632;23.298;2022-12-07T05:45:55;32.60;;;18.83;;
13032;SDS011;6583;42.632;23.298;2022-12-07T05:48:22;29.43;;;18.20;;
13032;SDS011;6583;42.632;23.298;2022-12-07T05:50:49;31.67;;;19.27;;
13032;SDS011;6583;42.632;23.298;2022-12-07T05:53:17;22.27;;;14.00;;
13032;SDS011;6583;42.632;23.298;2022-12-07T05:55:44;25.40;;;15.27;;
13032;SDS011;6583;42.632;23.298;2022-12-07T05:58:11;65.80;;;20.30;;
13032;SDS011;6583;42.632;23.298;2022-12-07T06:00:56;35.83;;;18.13;;
13032;SDS011;6583;42.632;23.298;2022-12-07T06:03:23;36.17;;;18.20;;
13032;SDS011;6583;42.632;23.298;2022-12-07T06:05:50;40.00;;;16.87;;
13032;SDS011;6583;42.632;23.298;2022-12-07T06:08:18;29.67;;;18.03;;
13032;SDS011;6583;42.632;23.298;2022-12-07T06:10:46;44.50;;;20.23;;
13032;SDS011;6583;42.632;23.298;2022-12-07T06:13:35;65.03;;;22.00;;
13032;SDS011;6583;42.632;23.298;2022-12-07T06:16:02;32.67;;;18.53;;
13032;SDS011;6583;42.632;23.298;2022-12-07T06:18:29;34.13;;;18.07;;
13032;SDS011;6583;42.632;23.298;2022-12-07T06:20:55;52.07;;;23.07;;
13032;SDS011;6583;42.632;23.298;2022-12-07T06:23:22;36.70;;;20.83;;
13032;SDS011;6583;42.632;23.298;2022-12-07T06:25:49;46.07;;;22.80;;
13032;SDS011;6583;42.632;23.298;2022-12-07T06:28:15;39.20;;;21.90;;
13032;SDS011;6583;42.632;23.298;2022-12-07T06:30:42;42.30;;;22.67;;
13032;SDS011;6583;42.632;23.298;2022-12-07T06:33:10;41.00;;;23.90;;
13032;SDS011;6583;42.632;23.298;2022-12-07T06:35:36;42.23;;;21.83;;
13032;SDS011;6583;42.632;23.298;2022-12-07T06:38:03;43.17;;;23.53;;
13032;SDS011;6583;42.632;23.298;2022-12-07T06:40:30;42.80;;;23.43;;
13032;SDS011;6583;42.632;23.298;2022-12-07T06:42:56;38.10;;;21.03;;
13032;SDS011;6583;42.632;23.298;2022-12-07T06:45:23;49.10;;;22.00;;
13032;SDS011;6583;42.632;23.298;2022-12-07T06:47:50;50.73;;;24.73;;
13032;SDS011;6583;42.632;23.298;2022-12-07T06:50:18;46.90;;;25.20;;
13032;SDS011;6583;42.632;23.298;2022-12-07T06:52:44;48.80;;;25.80;;
13032;SDS011;6583;42.632;23.298;2022-12-07T06:55:11;42.00;;;24.20;;
13032;SDS011;6583;42.632;23.298;2022-12-07T06:57:37;42.30;;;22.97;;
13032;SDS011;6583;42.632;23.298;2022-12-07T07:00:05;44.13;;;25.07;;
13032;SDS011;6583;42.632;23.298;2022-12-07T07:02:32;49.90;;;28.13;;
13032;SDS011;6583;42.632;23.298;2022-12-07T07:04:59;65.40;;;27.97;;
13032;SDS011;6583;42.632;23.298;2022-12-07T07:07:27;48.07;;;25.70;;
13032;SDS011;6583;42.632;23.298;2022-12-07T07:09:53;56.47;;;28.00;;
13032;SDS011;6583;42.632;23.298;2022-12-07T07:12:20;80.60;;;28.37;;
13032;SDS011;6583;42.632;23.298;2022-12-07T07:14:47;51.70;;;26.87;;
13032;SDS011;6583;42.632;23.298;2022-12-07T07:17:13;62.43;;;26.97;;
13032;SDS011;6583;42.632;23.298;2022-12-07T07:19:40;91.60;;;28.77;;
13032;SDS011;6583;42.632;23.298;2022-12-07T07:22:07;55.77;;;26.20;;
13032;SDS011;6583;42.632;23.298;2022-12-07T07:24:35;57.07;;;27.10;;
13032;SDS011;6583;42.632;23.298;2022-12-07T07:27:01;61.80;;;29.13;;
13032;SDS011;6583;42.632;23.298;2022-12-07T07:29:28;128.93;;;35.53;;
13032;SDS011;6583;42.632;23.298;2022-12-07T07:31:55;61.40;;;32.47;;
13032;SDS011;6583;42.632;23.298;2022-12-07T07:34:21;56.33;;;30.17;;
13032;SDS011;6583;42.632;23.298;2022-12-07T07:36:48;54.83;;;28.20;;
13032;SDS011;6583;42.632;23.298;2022-12-07T07:39:14;75.30;;;30.37;;
13032;SDS011;6583;42.632;23.298;2022-12-07T07:41:42;65.07;;;31.00;;
13032;SDS011;6583;42.632;23.298;2022-12-07T07:44:09;88.90;;;32.57;;
13032;SDS011;6583;42.632;23.298;2022-12-07T07:46:36;112.97;;;34.57;;
13032;SDS011;6583;42.632;23.298;2022-12-07T07:49:02;113.03;;;32.80;;
13032;SDS011;6583;42.632;23.298;2022-12-07T07:51:29;63.03;;;31.80;;
13032;SDS011;6583;42.632;23.298;2022-12-07T07:53:56;60.53;;;30.43;;
13032;SDS011;6583;42.632;23.298;2022-12-07T07:56:22;52.90;;;28.33;;
13032;SDS011;6583;42.632;23.298;2022-12-07T07:58:52;53.87;;;28.13;;
13032;SDS011;6583;42.632;23.298;2022-12-07T08:01:19;55.50;;;28.23;;
13032;SDS011;6583;42.632;23.298;2022-12-07T08:03:46;66.40;;;32.10;;
13032;SDS011;6583;42.632;23.298;2022-12-07T08:06:13;62.53;;;30.50;;
13032;SDS011;6583;42.632;23.298;2022-12-07T08:08:39;65.13;;;31.70;;
13032;SDS011;6583;42.632;23.298;2022-12-07T08:11:06;54.97;;;30.23;;
13032;SDS011;6583;42.632;23.298;2022-12-07T08:13:34;60.43;;;30.77;;
13032;SDS011;6583;42.632;23.298;2022-12-07T08:16:04;63.03;;;31.47;;
13032;SDS011;6583;42.632;23.298;2022-12-07T08:18:34;61.20;;;30.30;;
13032;SDS011;6583;42.632;23.298;2022-12-07T08:21:01;65.70;;;31.27;;
13032;SDS011;6583;42.632;23.298;2022-12-07T08:23:28;57.70;;;29.57;;
13032;SDS011;6583;42.632;23.298;2022-12-07T08:25:55;63.20;;;31.67;;
13032;SDS011;6583;42.632;23.298;2022-12-07T08:28:26;68.47;;;30.33;;
13032;SDS011;6583;42.632;23.298;2022-12-07T08:30:54;59.30;;;31.27;;
13032;SDS011;6583;42.632;23.298;2022-12-07T08:33:26;62.43;;;31.43;;
13032;SDS011;6583;42.632;23.298;2022-12-07T08:35:53;62.67;;;31.10;;
13032;SDS011;6583;42.632;23.298;2022-12-07T08:38:20;61.93;;;31.47;;
13032;SDS011;6583;42.632;23.298;2022-12-07T08:40:52;60.70;;;30.50;;
13032;SDS011;6583;42.632;23.298;2022-12-07T08:43:20;62.30;;;31.40;;
13032;SDS011;6583;42.632;23.298;2022-12-07T08:45:47;65.27;;;30.57;;
13032;SDS011;6583;42.632;23.298;2022-12-07T08:48:15;59.77;;;30.67;;
13032;SDS011;6583;42.632;23.298;2022-12-07T08:50:48;58.57;;;32.33;;
13032;SDS011;6583;42.632;23.298;2022-12-07T08:53:15;56.77;;;29.70;;
13032;SDS011;6583;42.632;23.298;2022-12-07T08:55:42;66.17;;;31.03;;
13032;SDS011;6583;42.632;23.298;2022-12-07T08:58:10;57.57;;;30.07;;
13032;SDS011;6583;42.632;23.298;2022-12-07T09:00:37;55.23;;;28.60;;
13032;SDS011;6583;42.632;23.298;2022-12-07T09:03:03;52.23;;;28.33;;
13032;SDS011;6583;42.632;23.298;2022-12-07T09:05:30;56.47;;;30.73;;
13032;SDS011;6583;42.632;23.298;2022-12-07T09:08:01;50.87;;;30.17;;
13032;SDS011;6583;42.632;23.298;2022-12-07T09:10:28;54.40;;;30.30;;
13032;SDS011;6583;42.632;23.298;2022-12-07T09:12:54;58.67;;;31.90;;
13032;SDS011;6583;42.632;23.298;2022-12-07T09:15:25;57.13;;;31.57;;
13032;SDS011;6583;42.632;23.298;2022-12-07T09:17:52;59.80;;;31.93;;
13032;SDS011;6583;42.632;23.298;2022-12-07T09:20:19;61.20;;;34.67;;
13032;SDS011;6583;42.632;23.298;2022-12-07T09:22:45;70.93;;;41.10;;
13032;SDS011;6583;42.632;23.298;2022-12-07T09:25:13;101.47;;;56.20;;
13032;SDS011;6583;42.632;23.298;2022-12-07T09:27:41;94.10;;;51.57;;
13032;SDS011;6583;42.632;23.298;2022-12-07T09:30:08;94.73;;;51.57;;
13032;SDS011;6583;42.632;23.298;2022-12-07T09:32:35;88.73;;;50.43;;
13032;SDS011;6583;42.632;23.298;2022-12-07T09:35:04;88.57;;;50.33;;
13032;SDS011;6583;42.632;23.298;2022-12-07T09:37:31;91.87;;;51.17;;
13032;SDS011;6583;42.632;23.298;2022-12-07T09:40:01;87.90;;;51.43;;
13032;SDS011;6583;42.632;23.298;2022-12-07T09:42:31;95.57;;;55.10;;
13032;SDS011;6583;42.632;23.298;2022-12-07T09:45:00;89.17;;;52.67;;
13032;SDS011;6583;42.632;23.298;2022-12-07T09:47:28;93.43;;;54.90;;
13032;SDS011;6583;42.632;23.298;2022-12-07T09:49:55;85.23;;;49.87;;
13032;SDS011;6583;42.632;23.298;2022-12-07T09:52:29;78.17;;;44.60;;
13032;SDS011;6583;42.632;23.298;2022-12-07T09:54:57;72.80;;;42.53;;
13032;SDS011;6583;42.632;23.298;2022-12-07T09:57:26;83.87;;;44.70;;
13032;SDS011;6583;42.632;23.298;2022-12-07T09:59:56;72.77;;;42.13;;
13032;SDS011;6583;42.632;23.298;2022-12-07T10:02:33;80.00;;;45.50;;
13032;SDS011;6583;42.632;23.298;2022-12-07T10:05:03;73.43;;;41.23;;
13032;SDS011;6583;42.632;23.298;2022-12-07T10:07:32;72.00;;;41.47;;
13032;SDS011;6583;42.632;23.298;2022-12-07T10:09:59;72.30;;;41.80;;
13032;SDS011;6583;42.632;23.298;2022-12-07T10:12:25;69.67;;;41.07;;
13032;SDS011;6583;42.632;23.298;2022-12-07T10:14:59;78.17;;;46.10;;
13032;SDS011;6583;42.632;23.298;2022-12-07T10:17:33;73.90;;;42.43;;
13032;SDS011;6583;42.632;23.298;2022-12-07T10:20:13;68.13;;;41.77;;
13032;SDS011;6583;42.632;23.298;2022-12-07T10:22:53;37.40;;;24.27;;
13032;SDS011;6583;42.632;23.298;2022-12-07T10:25:22;23.07;;;14.70;;
13032;SDS011;6583;42.632;23.298;2022-12-07T10:30:48;25.07;;;13.30;;
13032;SDS011;6583;42.632;23.298;2022-12-07T10:33:27;22.10;;;13.73;;
13032;SDS011;6583;42.632;23.298;2022-12-07T10:35:55;14.50;;;9.30;;
13032;SDS011;6583;42.632;23.298;2022-12-07T10:38:22;17.37;;;10.73;;
13032;SDS011;6583;42.632;23.298;2022-12-07T10:41:02;23.60;;;15.27;;
13032;SDS011;6583;42.632;23.298;2022-12-07T10:43:30;31.83;;;19.93;;
13032;SDS011;6583;42.632;23.298;2022-12-07T10:46:17;24.80;;;13.93;;
13032;SDS011;6583;42.632;23.298;2022-12-07T10:49:02;21.73;;;13.17;;
13032;SDS011;6583;42.632;23.298;2022-12-07T10:51:41;16.53;;;10.07;;
13032;SDS011;6583;42.632;23.298;2022-12-07T10:54:16;25.67;;;16.27;;
13032;SDS011;6583;42.632;23.298;2022-12-07T10:56:57;17.33;;;11.23;;
13032;SDS011;6583;42.632;23.298;2022-12-07T10:59:42;16.30;;;10.50;;
13032;SDS011;6583;42.632;23.298;2022-12-07T11:02:26;21.50;;;12.07;;
13032;SDS011;6583;42.632;23.298;2022-12-07T11:05:06;16.47;;;11.40;;
13032;SDS011;6583;42.632;23.298;2022-12-07T11:07:44;22.27;;;14.97;;
13032;SDS011;6583;42.632;23.298;2022-12-07T11:10:18;24.37;;;15.47;;
13032;SDS011;6583;42.632;23.298;2022-12-07T11:12:53;22.27;;;14.23;;
13032;SDS011;6583;42.632;23.298;2022-12-07T11:15:31;22.20;;;14.20;;
13032;SDS011;6583;42.632;23.298;2022-12-07T11:18:09;24.70;;;14.53;;
13032;SDS011;6583;42.632;23.298;2022-12-07T11:20:42;13.37;;;9.50;;
13032;SDS011;6583;42.632;23.298;2022-12-07T11:23:21;19.10;;;11.27;;
13032;SDS011;6583;42.632;23.298;2022-12-07T11:25:58;15.13;;;10.23;;
13032;SDS011;6583;42.632;23.298;2022-12-07T11:28:36;19.07;;;12.63;;
13032;SDS011;6583;42.632;23.298;2022-12-07T11:31:18;14.60;;;8.97;;
13032;SDS011;6583;42.632;23.298;2022-12-07T11:33:57;12.37;;;8.80;;
13032;SDS011;6583;42.632;23.298;2022-12-07T11:36:35;16.47;;;9.90;;
13032;SDS011;6583;42.632;23.298;2022-12-07T11:39:09;15.27;;;9.73;;
13032;SDS011;6583;42.632;23.298;2022-12-07T11:41:52;14.50;;;9.30;;
13032;SDS011;6583;42.632;23.298;2022-12-07T11:44:25;14.23;;;8.90;;
13032;SDS011;6583;42.632;23.298;2022-12-07T11:46:58;14.13;;;8.77;;
13032;SDS011;6583;42.632;23.298;2022-12-07T11:49:34;15.90;;;9.80;;
13032;SDS011;6583;42.632;23.298;2022-12-07T11:52:11;15.47;;;9.67;;
13032;SDS011;6583;42.632;23.298;2022-12-07T11:54:47;16.27;;;10.67;;
13032;SDS011;6583;42.632;23.298;2022-12-07T11:57:20;26.27;;;11.70;;
13032;SDS011;6583;42.632;23.298;2022-12-07T11:59:52;18.90;;;11.53;;
13032;SDS011;6583;42.632;23.298;2022-12-07T12:02:23;26.57;;;15.10;;
13032;SDS011;6583;42.632;23.298;2022-12-07T12:04:58;22.97;;;14.67;;
13032;SDS011;6583;42.632;23.298;2022-12-07T12:07:32;23.63;;;14.47;;
13032;SDS011;6583;42.632;23.298;2022-12-07T12:10:00;21.27;;;13.53;;
13032;SDS011;6583;42.632;23.298;2022-12-07T12:12:36;28.83;;;16.60;;
13032;SDS011;6583;42.632;23.298;2022-12-07T12:15:23;26.23;;;13.47;;
13032;SDS011;6583;42.632;23.298;2022-12-07T12:18:10;22.93;;;12.60;;
13032;SDS011;6583;42.632;23.298;2022-12-07T12:20:53;22.10;;;12.77;;
13032;SDS011;6583;42.632;23.298;2022-12-07T12:23:23;19.43;;;12.10;;
13032;SDS011;6583;42.632;23.298;2022-12-07T12:25:59;20.47;;;13.47;;
13032;SDS011;6583;42.632;23.298;2022-12-07T12:28:30;20.03;;;12.50;;
13032;SDS011;6583;42.632;23.298;2022-12-07T12:31:05;19.30;;;13.10;;
13032;SDS011;6583;42.632;23.298;2022-12-07T12:33:38;18.10;;;12.37;;
13032;SDS011;6583;42.632;23.298;2022-12-07T12:36:22;19.03;;;12.57;;
13032;SDS011;6583;42.632;23.298;2022-12-07T12:38:52;18.83;;;12.93;;
13032;SDS011;6583;42.632;23.298;2022-12-07T12:41:52;26.50;;;13.80;;
13032;SDS011;6583;42.632;23.298;2022-12-07T12:44:40;26.17;;;14.23;;
13032;SDS011;6583;42.632;23.298;2022-12-07T12:53:02;22.37;;;14.13;;
13032;SDS011;6583;42.632;23.298;2022-12-07T12:58:47;19.67;;;12.40;;
13032;SDS011;6583;42.632;23.298;2022-12-07T13:04:23;21.93;;;13.33;;
13032;SDS011;6583;42.632;23.298;2022-12-07T13:06:53;24.87;;;14.30;;
13032;SDS011;6583;42.632;23.298;2022-12-07T13:09:22;22.23;;;14.27;;
13032;SDS011;6583;42.632;23.298;2022-12-07T13:11:56;26.27;;;14.17;;
13032;SDS011;6583;42.632;23.298;2022-12-07T13:20:46;31.63;;;14.17;;
13032;SDS011;6583;42.632;23.298;2022-12-07T13:23:18;21.47;;;13.90;;
13032;SDS011;6583;42.632;23.298;2022-12-07T13:26:03;21.53;;;13.80;;
13032;SDS011;6583;42.632;23.298;2022-12-07T13:28:36;22.83;;;14.40;;
13032;SDS011;6583;42.632;23.298;2022-12-07T13:33:58;24.00;;;14.73;;
13032;SDS011;6583;42.632;23.298;2022-12-07T13:36:27;26.50;;;15.07;;
13032;SDS011;6583;42.632;23.298;2022-12-07T13:38:57;28.60;;;16.37;;
13032;SDS011;6583;42.632;23.298;2022-12-07T13:41:27;26.93;;;15.83;;
13032;SDS011;6583;42.632;23.298;2022-12-07T13:43:59;31.77;;;18.90;;
13032;SDS011;6583;42.632;23.298;2022-12-07T13:46:31;40.37;;;20.53;;
13032;SDS011;6583;42.632;23.298;2022-12-07T13:49:15;39.37;;;19.23;;
13032;SDS011;6583;42.632;23.298;2022-12-07T13:51:44;51.57;;;21.53;;
13032;SDS011;6583;42.632;23.298;2022-12-07T13:54:11;41.60;;;19.70;;
13032;SDS011;6583;42.632;23.298;2022-12-07T13:56:41;59.03;;;22.43;;
13032;SDS011;6583;42.632;23.298;2022-12-07T13:59:12;72.10;;;25.23;;
13032;SDS011;6583;42.632;23.298;2022-12-07T14:01:40;58.87;;;24.40;;
13032;SDS011;6583;42.632;23.298;2022-12-07T14:04:18;59.93;;;24.60;;
13032;SDS011;6583;42.632;23.298;2022-12-07T14:06:58;53.67;;;22.00;;
13032;SDS011;6583;42.632;23.298;2022-12-07T14:09:27;68.43;;;22.57;;
13032;SDS011;6583;42.632;23.298;2022-12-07T14:11:56;63.77;;;20.40;;
13032;SDS011;6583;42.632;23.298;2022-12-07T14:14:25;95.07;;;23.20;;
13032;SDS011;6583;42.632;23.298;2022-12-07T14:16:56;104.33;;;22.60;;
13032;SDS011;6583;42.632;23.298;2022-12-07T14:19:44;144.67;;;26.43;;
13032;SDS011;6583;42.632;23.298;2022-12-07T14:22:20;52.90;;;17.30;;
13032;SDS011;6583;42.632;23.298;2022-12-07T14:27:53;30.83;;;14.33;;
13032;SDS011;6583;42.632;23.298;2022-12-07T14:30:23;30.20;;;14.13;;
13032;SDS011;6583;42.632;23.298;2022-12-07T14:32:53;28.10;;;14.90;;
13032;SDS011;6583;42.632;23.298;2022-12-07T14:35:22;31.37;;;13.60;;
13032;SDS011;6583;42.632;23.298;2022-12-07T14:37:49;33.60;;;14.27;;
13032;SDS011;6583;42.632;23.298;2022-12-07T14:40:17;25.03;;;13.80;;
13032;SDS011;6583;42.632;23.298;2022-12-07T14:42:45;23.63;;;11.23;;
13032;SDS011;6583;42.632;23.298;2022-12-07T14:45:16;18.57;;;11.07;;
13032;SDS011;6583;42.632;23.298;2022-12-07T14:47:45;19.80;;;9.20;;
13032;SDS011;6583;42.632;23.298;2022-12-07T14:50:12;17.40;;;9.33;;
13032;SDS011;6583;42.632;23.298;2022-12-07T14:52:41;16.23;;;8.90;;
13032;SDS011;6583;42.632;23.298;2022-12-07T14:55:12;25.90;;;9.53;;
13032;SDS011;6583;42.632;23.298;2022-12-07T14:57:42;18.07;;;10.17;;
13032;SDS011;6583;42.632;23.298;2022-12-07T15:00:10;17.77;;;9.73;;
13032;SDS011;6583;42.632;23.298;2022-12-07T15:02:41;14.37;;;9.20;;
13032;SDS011;6583;42.632;23.298;2022-12-07T15:05:09;12.67;;;8.07;;
13032;SDS011;6583;42.632;23.298;2022-12-07T15:07:35;12.57;;;9.07;;
13032;SDS011;6583;42.632;23.298;2022-12-07T15:10:03;19.50;;;11.70;;
13032;SDS011;6583;42.632;23.298;2022-12-07T15:12:30;17.60;;;12.63;;